createdAt,value
2022-10-02T00:00:18.376Z,1009.48
2022-10-02T00:01:18.430Z,1009.52
2022-10-02T00:02:18.356Z,1009.53
2022-10-02T00:03:18.364Z,1009.53
2022-10-02T00:04:18.394Z,1009.57
2022-10-02T00:05:18.324Z,1009.58
2022-10-02T00:06:18.322Z,1009.57
2022-10-02T00:07:18.309Z,1009.60
2022-10-02T00:08:23.302Z,1009.60
2022-10-02T00:09:19.276Z,1009.60
2022-10-02T00:10:18.269Z,1009.60
2022-10-02T00:11:18.253Z,1009.60
2022-10-02T00:12:18.245Z,1009.62
2022-10-02T00:13:18.252Z,1009.61
2022-10-02T00:14:18.219Z,1009.64
2022-10-02T00:15:18.227Z,1009.71
2022-10-02T00:16:18.254Z,1009.69
2022-10-02T00:17:18.184Z,1009.70
2022-10-02T00:18:18.193Z,1009.67
2022-10-02T00:19:18.164Z,1009.69
2022-10-02T00:20:18.156Z,1009.66
2022-10-02T00:21:18.137Z,1009.64
2022-10-02T00:22:18.126Z,1009.60
2022-10-02T00:23:18.130Z,1009.56
2022-10-02T00:24:18.105Z,1009.58
2022-10-02T00:25:18.101Z,1009.53
2022-10-02T00:26:18.082Z,1009.58
2022-10-02T00:27:18.079Z,1009.57
2022-10-02T00:28:18.177Z,1009.62
2022-10-02T00:29:18.048Z,1009.66
2022-10-02T00:30:18.036Z,1009.70
2022-10-02T00:31:18.145Z,1009.71
2022-10-02T00:32:18.012Z,1009.68
2022-10-02T00:33:18.025Z,1009.64
2022-10-02T00:34:17.989Z,1009.65
2022-10-02T00:35:17.991Z,1009.62
2022-10-02T00:36:17.997Z,1009.66
2022-10-02T00:37:17.962Z,1009.67
2022-10-02T00:38:17.957Z,1009.72
2022-10-02T00:39:17.942Z,1009.72
2022-10-02T00:40:17.921Z,1009.76
2022-10-02T00:41:17.910Z,1009.78
2022-10-02T00:42:17.914Z,1009.76
2022-10-02T00:43:17.912Z,1009.79
2022-10-02T00:44:17.885Z,1009.80
2022-10-02T00:45:17.865Z,1009.85
2022-10-02T00:46:17.913Z,1009.84
2022-10-02T00:47:17.870Z,1009.87
2022-10-02T00:48:17.847Z,1009.86
2022-10-02T00:49:17.840Z,1009.83
2022-10-02T00:50:17.813Z,1009.88
2022-10-02T00:51:17.806Z,1009.86
2022-10-02T00:52:17.791Z,1009.89
2022-10-02T00:53:17.799Z,1009.89
2022-10-02T00:54:17.770Z,1009.91
2022-10-02T00:55:17.760Z,1009.94
2022-10-02T00:56:17.741Z,1009.96
2022-10-02T00:57:17.732Z,1009.94
2022-10-02T00:58:17.753Z,1009.98
2022-10-02T00:59:17.719Z,1009.95
2022-10-02T01:00:17.704Z,1009.92
2022-10-02T01:01:17.767Z,1009.96
2022-10-02T01:02:17.748Z,1009.89
2022-10-02T01:03:17.699Z,1009.87
2022-10-02T01:04:17.650Z,1009.88
2022-10-02T01:05:17.646Z,1009.91
2022-10-02T01:06:17.629Z,1009.84
2022-10-02T01:07:17.624Z,1009.83
2022-10-02T01:08:17.624Z,1009.86
2022-10-02T01:09:17.594Z,1009.86
2022-10-02T01:10:17.599Z,1009.88
2022-10-02T01:11:17.582Z,1009.91
2022-10-02T01:12:17.564Z,1009.92
2022-10-02T01:13:17.581Z,1009.88
2022-10-02T01:14:17.546Z,1009.94
2022-10-02T01:15:17.536Z,1009.94
2022-10-02T01:16:17.602Z,1009.99
2022-10-02T01:17:17.511Z,1009.93
2022-10-02T01:18:17.512Z,1009.95
2022-10-02T01:19:17.511Z,1009.93
2022-10-02T01:20:17.481Z,1009.89
2022-10-02T01:21:17.464Z,1009.90
2022-10-02T01:22:17.464Z,1009.90
2022-10-02T01:23:17.457Z,1009.93
2022-10-02T01:24:17.427Z,1009.90
2022-10-02T01:25:17.421Z,1009.92
2022-10-02T01:26:17.412Z,1009.92
2022-10-02T01:27:17.400Z,1009.94
2022-10-02T01:28:17.502Z,1009.93
2022-10-02T01:29:17.369Z,1009.95
2022-10-02T01:30:17.361Z,1009.96
2022-10-02T01:31:17.433Z,1009.95
2022-10-02T01:32:17.344Z,1009.99
2022-10-02T01:33:17.342Z,1009.97
2022-10-02T01:34:17.319Z,1010.00
2022-10-02T01:35:17.322Z,1009.97
2022-10-02T01:36:17.290Z,1010.01
2022-10-02T01:37:17.282Z,1010.00
2022-10-02T01:38:17.284Z,1009.96
2022-10-02T01:39:17.258Z,1010.01
2022-10-02T01:40:17.254Z,1009.97
2022-10-02T01:41:17.232Z,1009.95
2022-10-02T01:42:17.247Z,1009.94
2022-10-02T01:43:17.223Z,1009.94
2022-10-02T01:44:17.213Z,1009.94
2022-10-02T01:45:17.191Z,1009.93
2022-10-02T01:46:17.252Z,1009.94
2022-10-02T01:47:17.174Z,1009.94
2022-10-02T01:48:17.161Z,1009.92
2022-10-02T01:49:17.166Z,1009.97
2022-10-02T01:50:17.140Z,1009.97
2022-10-02T01:51:17.147Z,1010.00
2022-10-02T01:52:17.111Z,1010.02
2022-10-02T01:53:17.098Z,1010.03
2022-10-02T01:54:17.107Z,1010.04
2022-10-02T01:55:17.083Z,1010.02
2022-10-02T01:56:17.066Z,1010.01
2022-10-02T01:57:17.064Z,1009.99
2022-10-02T01:58:17.054Z,1010.01
2022-10-02T01:59:17.063Z,1010.01
2022-10-02T02:00:17.039Z,1010.04
2022-10-02T02:01:17.127Z,1010.09
2022-10-02T02:02:17.091Z,1010.04
2022-10-02T02:03:16.984Z,1010.00
2022-10-02T02:04:17.000Z,1009.97
2022-10-02T02:05:16.970Z,1009.97
2022-10-02T02:06:16.963Z,1009.93
2022-10-02T02:07:16.962Z,1009.97
2022-10-02T02:08:16.938Z,1009.98
2022-10-02T02:09:16.949Z,1009.98
2022-10-02T02:10:16.910Z,1009.98
2022-10-02T02:11:16.903Z,1010.01
2022-10-02T02:12:16.897Z,1010.04
2022-10-02T02:13:16.880Z,1010.04
2022-10-02T02:14:16.884Z,1010.06
2022-10-02T02:15:16.850Z,1009.99
2022-10-02T02:16:16.887Z,1009.97
2022-10-02T02:17:16.834Z,1010.00
2022-10-02T02:18:16.817Z,1009.99
2022-10-02T02:19:16.819Z,1009.98
2022-10-02T02:20:16.798Z,1009.98
2022-10-02T02:21:16.788Z,1010.03
2022-10-02T02:22:16.770Z,1010.03
2022-10-02T02:23:16.777Z,1010.06
2022-10-02T02:24:16.770Z,1010.08
2022-10-02T02:25:16.738Z,1010.04
2022-10-02T02:26:16.728Z,1009.99
2022-10-02T02:27:16.714Z,1009.96
2022-10-02T02:28:16.758Z,1009.93
2022-10-02T02:29:16.692Z,1009.87
2022-10-02T02:30:16.697Z,1009.86
2022-10-02T02:31:16.737Z,1009.86
2022-10-02T02:32:16.676Z,1009.89
2022-10-02T02:33:16.657Z,1009.91
2022-10-02T02:34:16.647Z,1009.90
2022-10-02T02:35:16.643Z,1009.92
2022-10-02T02:36:16.627Z,1009.89
2022-10-02T02:37:16.665Z,1009.96
2022-10-02T02:38:16.598Z,1009.94
2022-10-02T02:39:16.604Z,1009.94
2022-10-02T02:40:16.594Z,1009.92
2022-10-02T02:41:16.592Z,1009.89
2022-10-02T02:42:17.973Z,1009.87
2022-10-02T02:43:16.556Z,1009.83
2022-10-02T02:44:16.530Z,1009.84
2022-10-02T02:45:16.531Z,1009.84
2022-10-02T02:46:16.507Z,1009.82
2022-10-02T02:47:16.500Z,1009.84
2022-10-02T02:48:16.483Z,1009.88
2022-10-02T02:49:16.478Z,1009.92
2022-10-02T02:50:16.481Z,1009.96
2022-10-02T02:51:16.460Z,1009.95
2022-10-02T02:52:16.438Z,1009.99
2022-10-02T02:53:16.425Z,1009.95
2022-10-02T02:54:16.424Z,1009.97
2022-10-02T02:55:16.441Z,1010.03
2022-10-02T02:56:16.399Z,1010.03
2022-10-02T02:57:16.381Z,1010.06
2022-10-02T02:58:16.380Z,1010.08
2022-10-02T02:59:16.358Z,1010.03
2022-10-02T03:00:16.351Z,1010.00
2022-10-02T03:01:16.404Z,1010.01
2022-10-02T03:02:16.424Z,1010.04
2022-10-02T03:03:16.314Z,1009.97
2022-10-02T03:04:16.311Z,1009.97
2022-10-02T03:05:16.300Z,1009.96
2022-10-02T03:06:16.301Z,1009.96
2022-10-02T03:07:16.277Z,1009.99
2022-10-02T03:08:16.271Z,1009.96
2022-10-02T03:09:16.257Z,1009.96
2022-10-02T03:10:16.238Z,1009.94
2022-10-02T03:11:16.258Z,1009.89
2022-10-02T03:12:16.224Z,1009.88
2022-10-02T03:13:16.224Z,1009.87
2022-10-02T03:14:16.199Z,1009.85
2022-10-02T03:15:16.187Z,1009.85
2022-10-02T03:16:16.248Z,1009.88
2022-10-02T03:17:16.167Z,1009.86
2022-10-02T03:18:16.149Z,1009.93
2022-10-02T03:19:16.141Z,1009.93
2022-10-02T03:20:16.125Z,1009.92
2022-10-02T03:21:16.124Z,1009.97
2022-10-02T03:22:16.109Z,1009.91
2022-10-02T03:23:16.098Z,1009.92
2022-10-02T03:24:16.088Z,1009.85
2022-10-02T03:25:16.090Z,1009.93
2022-10-02T03:26:16.077Z,1009.91
2022-10-02T03:27:16.152Z,1009.95
2022-10-02T03:28:27.187Z,1009.95
2022-10-02T03:29:17.024Z,1009.98
2022-10-02T03:30:16.019Z,1009.97
2022-10-02T03:31:16.048Z,1009.97
2022-10-02T03:32:16.008Z,1009.95
2022-10-02T03:33:15.985Z,1009.98
2022-10-02T03:34:15.968Z,1009.94
2022-10-02T03:35:15.961Z,1009.95
2022-10-02T03:36:15.961Z,1009.95
2022-10-02T03:37:15.955Z,1009.92
2022-10-02T03:38:15.928Z,1009.88
2022-10-02T03:39:31.231Z,1009.87
2022-10-02T03:40:16.899Z,1009.83
2022-10-02T03:41:15.894Z,1009.84
2022-10-02T03:42:15.898Z,1009.83
2022-10-02T03:43:15.892Z,1009.92
2022-10-02T03:44:15.857Z,1009.88
2022-10-02T03:45:32.697Z,1009.85
2022-10-02T03:46:16.917Z,1009.83
2022-10-02T03:47:15.841Z,1009.81
2022-10-02T03:48:15.816Z,1009.83
2022-10-02T03:49:15.797Z,1009.81
2022-10-02T03:50:15.787Z,1009.86
2022-10-02T03:51:15.784Z,1009.88
2022-10-02T03:52:15.777Z,1009.85
2022-10-02T03:53:15.754Z,1009.87
2022-10-02T03:54:15.743Z,1009.92
2022-10-02T03:55:15.731Z,1009.88
2022-10-02T03:56:15.720Z,1009.89
2022-10-02T03:57:15.724Z,1009.88
2022-10-02T03:58:15.697Z,1009.94
2022-10-02T03:59:15.713Z,1009.99
2022-10-02T04:00:15.688Z,1010.01
2022-10-02T04:01:15.720Z,1010.01
2022-10-02T04:02:15.669Z,1009.96
2022-10-02T04:03:15.678Z,1009.99
2022-10-02T04:04:15.627Z,1009.93
2022-10-02T04:05:15.615Z,1009.93
2022-10-02T04:06:15.618Z,1009.90
2022-10-02T04:07:15.612Z,1009.89
2022-10-02T04:08:15.596Z,1009.87
2022-10-02T04:09:15.573Z,1009.83
2022-10-02T04:10:15.571Z,1009.88
2022-10-02T04:11:15.557Z,1009.87
2022-10-02T04:12:15.563Z,1009.85
2022-10-02T04:13:15.527Z,1009.86
2022-10-02T04:14:15.516Z,1009.89
2022-10-02T04:15:15.621Z,1009.87
2022-10-02T04:16:15.578Z,1009.93
2022-10-02T04:17:15.508Z,1009.97
2022-10-02T04:18:15.476Z,1010.03
2022-10-02T04:19:15.460Z,1010.03
2022-10-02T04:20:15.455Z,1010.02
2022-10-02T04:21:15.442Z,1010.03
2022-10-02T04:22:15.445Z,1010.03
2022-10-02T04:23:15.413Z,1010.01
2022-10-02T04:24:15.406Z,1010.04
2022-10-02T04:25:15.391Z,1010.06
2022-10-02T04:26:15.386Z,1010.06
2022-10-02T04:27:15.388Z,1010.05
2022-10-02T04:28:15.427Z,1010.07
2022-10-02T04:29:15.357Z,1010.06
2022-10-02T04:30:15.342Z,1010.09
2022-10-02T04:31:15.380Z,1010.07
2022-10-02T04:32:15.330Z,1010.08
2022-10-02T04:33:15.306Z,1010.11
2022-10-02T04:34:15.300Z,1010.11
2022-10-02T04:35:15.276Z,1010.14
2022-10-02T04:36:15.265Z,1010.05
2022-10-02T04:37:15.263Z,1010.05
2022-10-02T04:38:15.243Z,1010.09
2022-10-02T04:39:15.230Z,1010.11
2022-10-02T04:40:15.227Z,1010.16
2022-10-02T04:41:15.209Z,1010.17
2022-10-02T04:42:15.257Z,1010.15
2022-10-02T04:43:15.194Z,1010.19
2022-10-02T04:44:15.174Z,1010.17
2022-10-02T04:45:15.168Z,1010.22
2022-10-02T04:46:15.253Z,1010.21
2022-10-02T04:47:15.174Z,1010.21
2022-10-02T04:48:15.134Z,1010.18
2022-10-02T04:49:15.117Z,1010.20
2022-10-02T04:50:15.112Z,1010.22
2022-10-02T04:51:15.957Z,1010.20
2022-10-02T04:52:15.096Z,1010.18
2022-10-02T04:53:15.078Z,1010.19
2022-10-02T04:54:15.070Z,1010.20
2022-10-02T04:55:15.056Z,1010.18
2022-10-02T04:56:15.035Z,1010.14
2022-10-02T04:57:15.060Z,1010.13
2022-10-02T04:58:15.028Z,1010.15
2022-10-02T04:59:15.008Z,1010.09
2022-10-02T05:00:14.991Z,1010.10
2022-10-02T05:01:15.074Z,1010.10
2022-10-02T05:02:15.149Z,1010.13
2022-10-02T05:03:14.976Z,1010.11
2022-10-02T05:04:14.953Z,1010.10
2022-10-02T05:05:14.948Z,1010.07
2022-10-02T05:06:14.931Z,1010.10
2022-10-02T05:07:14.928Z,1010.10
2022-10-02T05:08:14.918Z,1010.07
2022-10-02T05:09:14.904Z,1010.08
2022-10-02T05:10:14.894Z,1010.07
2022-10-02T05:11:14.874Z,1010.10
2022-10-02T05:12:14.874Z,1010.06
2022-10-02T05:13:14.847Z,1010.09
2022-10-02T05:14:14.833Z,1010.11
2022-10-02T05:15:14.818Z,1010.13
2022-10-02T05:16:14.888Z,1010.15
2022-10-02T05:17:14.828Z,1010.14
2022-10-02T05:18:17.974Z,1010.15
2022-10-02T05:19:14.800Z,1010.16
2022-10-02T05:20:14.770Z,1010.14
2022-10-02T05:21:14.757Z,1010.17
2022-10-02T05:22:14.761Z,1010.19
2022-10-02T05:23:14.738Z,1010.22
2022-10-02T05:24:14.718Z,1010.26
2022-10-02T05:25:14.715Z,1010.23
2022-10-02T05:26:14.763Z,1010.24
2022-10-02T05:27:14.707Z,1010.27
2022-10-02T05:28:14.736Z,1010.23
2022-10-02T05:29:14.661Z,1010.25
2022-10-02T05:30:14.668Z,1010.28
2022-10-02T05:31:14.743Z,1010.24
2022-10-02T05:32:14.646Z,1010.28
2022-10-02T05:33:14.624Z,1010.28
2022-10-02T05:34:14.606Z,1010.30
2022-10-02T05:35:14.615Z,1010.34
2022-10-02T05:36:14.594Z,1010.31
2022-10-02T05:37:14.569Z,1010.32
2022-10-02T05:38:14.575Z,1010.35
2022-10-02T05:39:14.556Z,1010.36
2022-10-02T05:40:14.543Z,1010.33
2022-10-02T05:41:14.529Z,1010.34
2022-10-02T05:42:14.521Z,1010.41
2022-10-02T05:43:14.527Z,1010.41
2022-10-02T05:44:14.509Z,1010.44
2022-10-02T05:45:14.487Z,1010.40
2022-10-02T05:46:14.606Z,1010.41
2022-10-02T05:47:14.464Z,1010.41
2022-10-02T05:48:14.466Z,1010.42
2022-10-02T05:49:14.432Z,1010.47
2022-10-02T05:50:14.421Z,1010.46
2022-10-02T05:51:14.480Z,1010.45
2022-10-02T05:52:14.399Z,1010.44
2022-10-02T05:53:14.411Z,1010.40
2022-10-02T05:54:14.382Z,1010.38
2022-10-02T05:55:14.365Z,1010.36
2022-10-02T05:56:14.360Z,1010.37
2022-10-02T05:57:14.350Z,1010.38
2022-10-02T05:58:14.348Z,1010.39
2022-10-02T05:59:14.329Z,1010.35
2022-10-02T06:00:14.313Z,1010.40
2022-10-02T06:01:14.365Z,1010.39
2022-10-02T06:02:14.368Z,1010.42
2022-10-02T06:03:14.297Z,1010.44
2022-10-02T06:04:14.268Z,1010.48
2022-10-02T06:05:14.267Z,1010.48
2022-10-02T06:06:14.245Z,1010.46
2022-10-02T06:07:14.248Z,1010.44
2022-10-02T06:08:14.228Z,1010.42
2022-10-02T06:09:18.985Z,1010.45
2022-10-02T06:10:15.198Z,1010.49
2022-10-02T06:11:14.187Z,1010.47
2022-10-02T06:12:14.176Z,1010.48
2022-10-02T06:13:14.173Z,1010.49
2022-10-02T06:14:14.156Z,1010.51
2022-10-02T06:15:14.143Z,1010.51
2022-10-02T06:16:14.200Z,1010.52
2022-10-02T06:17:14.114Z,1010.55
2022-10-02T06:18:14.116Z,1010.52
2022-10-02T06:19:14.092Z,1010.59
2022-10-02T06:20:14.079Z,1010.61
2022-10-02T06:21:14.079Z,1010.63
2022-10-02T06:22:14.067Z,1010.63
2022-10-02T06:23:14.089Z,1010.62
2022-10-02T06:24:14.039Z,1010.64
2022-10-02T06:25:14.035Z,1010.64
2022-10-02T06:26:14.023Z,1010.68
2022-10-02T06:27:14.009Z,1010.67
2022-10-02T06:28:14.126Z,1010.67
2022-10-02T06:29:18.333Z,1010.67
2022-10-02T06:30:14.963Z,1010.65
2022-10-02T06:31:14.017Z,1010.70
2022-10-02T06:32:13.948Z,1010.72
2022-10-02T06:33:13.949Z,1010.74
2022-10-02T06:34:13.932Z,1010.79
2022-10-02T06:35:13.908Z,1010.80
2022-10-02T06:36:13.903Z,1010.86
2022-10-02T06:37:13.886Z,1010.84
2022-10-02T06:38:13.873Z,1010.84
2022-10-02T06:39:13.899Z,1010.87
2022-10-02T06:40:13.849Z,1010.90
2022-10-02T06:41:13.846Z,1010.87
2022-10-02T06:42:13.829Z,1010.87
2022-10-02T06:43:13.823Z,1010.89
2022-10-02T06:44:13.824Z,1010.88
2022-10-02T06:45:13.795Z,1010.85
2022-10-02T06:46:13.854Z,1010.86
2022-10-02T06:47:13.779Z,1010.88
2022-10-02T06:48:13.766Z,1010.91
2022-10-02T06:49:13.770Z,1010.93
2022-10-02T06:50:13.745Z,1010.92
2022-10-02T06:51:13.735Z,1010.91
2022-10-02T06:52:13.723Z,1010.90
2022-10-02T06:53:13.704Z,1010.93
2022-10-02T06:54:13.713Z,1010.91
2022-10-02T06:55:13.709Z,1010.97
2022-10-02T06:56:13.674Z,1010.94
2022-10-02T06:57:13.664Z,1010.92
2022-10-02T06:58:13.643Z,1010.96
2022-10-02T06:59:13.650Z,1010.96
2022-10-02T07:00:13.623Z,1010.96
2022-10-02T07:01:13.671Z,1011.00
2022-10-02T07:02:13.633Z,1010.99
2022-10-02T07:03:13.595Z,1010.98
2022-10-02T07:04:13.593Z,1011.01
2022-10-02T07:05:13.574Z,1011.02
2022-10-02T07:06:13.559Z,1011.02
2022-10-02T07:07:13.543Z,1011.00
2022-10-02T07:08:13.532Z,1011.00
2022-10-02T07:09:13.536Z,1010.99
2022-10-02T07:10:13.511Z,1010.99
2022-10-02T07:11:13.537Z,1011.02
2022-10-02T07:12:13.496Z,1011.02
2022-10-02T07:13:13.483Z,1011.00
2022-10-02T07:14:13.478Z,1011.02
2022-10-02T07:15:13.457Z,1011.02
2022-10-02T07:16:13.477Z,1011.07
2022-10-02T07:17:13.439Z,1011.08
2022-10-02T07:18:13.422Z,1011.10
2022-10-02T07:19:13.429Z,1011.12
2022-10-02T07:20:13.395Z,1011.09
2022-10-02T07:21:13.390Z,1011.13
2022-10-02T07:22:32.693Z,1011.18
2022-10-02T07:23:14.368Z,1011.14
2022-10-02T07:24:13.361Z,1011.13
2022-10-02T07:25:13.338Z,1011.09
2022-10-02T07:26:13.327Z,1011.04
2022-10-02T07:27:13.340Z,1011.04
2022-10-02T07:28:13.411Z,1011.09
2022-10-02T07:29:13.307Z,1011.11
2022-10-02T07:30:13.292Z,1011.07
2022-10-02T07:31:13.304Z,1011.11
2022-10-02T07:32:13.264Z,1011.13
2022-10-02T07:33:13.261Z,1011.05
2022-10-02T07:34:13.261Z,1011.08
2022-10-02T07:35:13.232Z,1011.13
2022-10-02T07:36:13.211Z,1011.14
2022-10-02T07:37:13.201Z,1011.14
2022-10-02T07:38:13.213Z,1011.18
2022-10-02T07:39:13.179Z,1011.09
2022-10-02T07:40:13.177Z,1011.12
2022-10-02T07:41:13.162Z,1011.20
2022-10-02T07:42:13.154Z,1011.12
2022-10-02T07:43:13.164Z,1011.18
2022-10-02T07:44:13.125Z,1011.16
2022-10-02T07:45:13.136Z,1011.19
2022-10-02T07:46:13.144Z,1011.17
2022-10-02T07:47:13.095Z,1011.19
2022-10-02T07:48:13.083Z,1011.26
2022-10-02T07:49:13.066Z,1011.27
2022-10-02T07:50:13.079Z,1011.36
2022-10-02T07:51:13.044Z,1011.37
2022-10-02T07:52:13.029Z,1011.40
2022-10-02T07:53:13.018Z,1011.44
2022-10-02T07:54:13.006Z,1011.42
2022-10-02T07:55:13.006Z,1011.41
2022-10-02T07:56:12.985Z,1011.41
2022-10-02T07:57:12.978Z,1011.45
2022-10-02T07:58:12.960Z,1011.45
2022-10-02T07:59:12.971Z,1011.45
2022-10-02T08:00:12.967Z,1011.45
2022-10-02T08:01:12.928Z,1011.46
2022-10-02T08:02:13.049Z,1011.44
2022-10-02T08:03:12.997Z,1011.43
2022-10-02T08:04:12.900Z,1011.41
2022-10-02T08:05:12.906Z,1011.47
2022-10-02T08:06:12.877Z,1011.45
2022-10-02T08:07:12.857Z,1011.47
2022-10-02T08:08:12.850Z,1011.47
2022-10-02T08:09:12.840Z,1011.47
2022-10-02T08:10:12.833Z,1011.47
2022-10-02T08:11:12.815Z,1011.50
2022-10-02T08:12:12.809Z,1011.50
2022-10-02T08:13:12.799Z,1011.53
2022-10-02T08:14:12.789Z,1011.55
2022-10-02T08:15:12.810Z,1011.54
2022-10-02T08:16:12.811Z,1011.56
2022-10-02T08:17:12.745Z,1011.53
2022-10-02T08:18:33.025Z,1011.56
2022-10-02T08:19:13.725Z,1011.53
2022-10-02T08:20:12.730Z,1011.53
2022-10-02T08:21:12.702Z,1011.50
2022-10-02T08:22:12.694Z,1011.52
2022-10-02T08:23:12.685Z,1011.53
2022-10-02T08:24:12.674Z,1011.54
2022-10-02T08:25:12.668Z,1011.50
2022-10-02T08:26:12.645Z,1011.52
2022-10-02T08:27:12.641Z,1011.52
2022-10-02T08:28:12.724Z,1011.54
2022-10-02T08:29:12.618Z,1011.58
2022-10-02T08:30:12.612Z,1011.59
2022-10-02T08:31:12.686Z,1011.64
2022-10-02T08:32:12.586Z,1011.61
2022-10-02T08:33:12.565Z,1011.61
2022-10-02T08:34:12.558Z,1011.59
2022-10-02T08:35:12.564Z,1011.61
2022-10-02T08:36:12.530Z,1011.57
2022-10-02T08:37:12.526Z,1011.61
2022-10-02T08:38:12.549Z,1011.65
2022-10-02T08:39:12.497Z,1011.67
2022-10-02T08:40:12.493Z,1011.66
2022-10-02T08:41:12.478Z,1011.66
2022-10-02T08:42:12.472Z,1011.67
2022-10-02T08:43:12.455Z,1011.68
2022-10-02T08:44:12.436Z,1011.62
2022-10-02T08:45:12.450Z,1011.58
2022-10-02T08:46:12.482Z,1011.59
2022-10-02T08:47:12.434Z,1011.58
2022-10-02T08:48:12.390Z,1011.61
2022-10-02T08:49:12.388Z,1011.62
2022-10-02T08:50:12.374Z,1011.61
2022-10-02T08:51:12.394Z,1011.62
2022-10-02T08:52:12.347Z,1011.64
2022-10-02T08:53:12.338Z,1011.66
2022-10-02T08:54:12.323Z,1011.63
2022-10-02T08:55:12.318Z,1011.64
2022-10-02T08:56:15.346Z,1011.66
2022-10-02T08:57:13.289Z,1011.63
2022-10-02T08:58:12.289Z,1011.66
2022-10-02T08:59:12.278Z,1011.64
2022-10-02T09:00:12.263Z,1011.63
2022-10-02T09:01:12.324Z,1011.63
2022-10-02T09:02:12.269Z,1011.68
2022-10-02T09:03:12.251Z,1011.68
2022-10-02T09:04:12.208Z,1011.70
2022-10-02T09:05:12.200Z,1011.66
2022-10-02T09:06:12.205Z,1011.63
2022-10-02T09:07:12.175Z,1011.64
2022-10-02T09:08:12.170Z,1011.65
2022-10-02T09:09:12.152Z,1011.63
2022-10-02T09:10:12.140Z,1011.65
2022-10-02T09:11:12.144Z,1011.68
2022-10-02T09:12:12.126Z,1011.66
2022-10-02T09:13:12.108Z,1011.73
2022-10-02T09:14:12.102Z,1011.76
2022-10-02T09:15:12.088Z,1011.76
2022-10-02T09:16:12.194Z,1011.80
2022-10-02T09:17:12.064Z,1011.79
2022-10-02T09:18:12.050Z,1011.80
2022-10-02T09:19:12.060Z,1011.83
2022-10-02T09:20:12.029Z,1011.75
2022-10-02T09:21:12.036Z,1011.76
2022-10-02T09:22:12.009Z,1011.72
2022-10-02T09:23:11.996Z,1011.70
2022-10-02T09:24:11.990Z,1011.72
2022-10-02T09:25:11.981Z,1011.71
2022-10-02T09:26:11.967Z,1011.77
2022-10-02T09:27:11.973Z,1011.78
2022-10-02T09:28:12.013Z,1011.81
2022-10-02T09:29:11.926Z,1011.83
2022-10-02T09:30:11.919Z,1011.79
2022-10-02T09:31:11.984Z,1011.80
2022-10-02T09:32:11.917Z,1011.79
2022-10-02T09:33:15.860Z,1011.75
2022-10-02T09:34:11.875Z,1011.75
2022-10-02T09:35:11.884Z,1011.69
2022-10-02T09:36:11.854Z,1011.73
2022-10-02T09:37:11.865Z,1011.72
2022-10-02T09:38:11.827Z,1011.72
2022-10-02T09:39:11.896Z,1011.71
2022-10-02T09:40:11.802Z,1011.68
2022-10-02T09:41:11.798Z,1011.64
2022-10-02T09:42:11.789Z,1011.66
2022-10-02T09:43:11.767Z,1011.63
2022-10-02T09:44:11.756Z,1011.71
2022-10-02T09:45:11.739Z,1011.66
2022-10-02T09:46:11.815Z,1011.72
2022-10-02T09:47:11.732Z,1011.71
2022-10-02T09:48:11.707Z,1011.73
2022-10-02T09:49:11.701Z,1011.76
2022-10-02T09:50:11.688Z,1011.76
2022-10-02T09:51:11.689Z,1011.77
2022-10-02T09:52:11.673Z,1011.74
2022-10-02T09:53:11.654Z,1011.73
2022-10-02T09:54:11.638Z,1011.71
2022-10-02T09:55:11.624Z,1011.70
2022-10-02T09:56:11.621Z,1011.72
2022-10-02T09:57:11.624Z,1011.70
2022-10-02T09:58:11.591Z,1011.72
2022-10-02T09:59:11.586Z,1011.79
2022-10-02T10:00:11.571Z,1011.73
2022-10-02T10:01:11.584Z,1011.74
2022-10-02T10:02:11.641Z,1011.78
2022-10-02T10:03:11.534Z,1011.80
2022-10-02T10:04:11.527Z,1011.76
2022-10-02T10:05:11.509Z,1011.79
2022-10-02T10:06:11.501Z,1011.82
2022-10-02T10:07:11.612Z,1011.85
2022-10-02T10:08:11.476Z,1011.90
2022-10-02T10:09:11.462Z,1011.89
2022-10-02T10:10:11.457Z,1011.87
2022-10-02T10:11:11.451Z,1011.87
2022-10-02T10:12:11.442Z,1011.83
2022-10-02T10:13:11.424Z,1011.91
2022-10-02T10:14:11.407Z,1011.89
2022-10-02T10:15:11.402Z,1011.94
2022-10-02T10:16:11.479Z,1011.95
2022-10-02T10:17:11.398Z,1011.92
2022-10-02T10:18:11.365Z,1011.93
2022-10-02T10:19:11.360Z,1011.94
2022-10-02T10:20:11.341Z,1011.90
2022-10-02T10:21:11.330Z,1011.93
2022-10-02T10:22:11.311Z,1011.93
2022-10-02T10:23:11.333Z,1011.95
2022-10-02T10:24:11.294Z,1011.95
2022-10-02T10:25:11.282Z,1011.98
2022-10-02T10:26:11.270Z,1011.96
2022-10-02T10:27:11.261Z,1011.93
2022-10-02T10:28:11.297Z,1011.95
2022-10-02T10:29:11.233Z,1011.97
2022-10-02T10:30:11.213Z,1011.96
2022-10-02T10:31:11.288Z,1011.95
2022-10-02T10:32:11.199Z,1011.94
2022-10-02T10:33:11.178Z,1011.97
2022-10-02T10:34:11.190Z,1011.95
2022-10-02T10:35:11.170Z,1011.95
2022-10-02T10:36:11.155Z,1011.97
2022-10-02T10:37:11.142Z,1011.94
2022-10-02T10:38:11.138Z,1011.96
2022-10-02T10:39:11.163Z,1011.95
2022-10-02T10:40:11.134Z,1011.97
2022-10-02T10:41:11.101Z,1011.99
2022-10-02T10:42:11.079Z,1011.99
2022-10-02T10:43:15.759Z,1012.01
2022-10-02T10:44:12.075Z,1012.00
2022-10-02T10:45:11.052Z,1012.03
2022-10-02T10:46:11.135Z,1012.01
2022-10-02T10:47:11.021Z,1011.99
2022-10-02T10:48:11.010Z,1012.02
2022-10-02T10:49:11.023Z,1012.02
2022-10-02T10:50:11.054Z,1012.01
2022-10-02T10:51:10.999Z,1012.00
2022-10-02T10:52:10.973Z,1012.07
2022-10-02T10:53:10.952Z,1012.05
2022-10-02T10:54:10.959Z,1012.05
2022-10-02T10:55:10.956Z,1012.09
2022-10-02T10:56:10.925Z,1012.12
2022-10-02T10:57:10.910Z,1012.14
2022-10-02T10:58:10.900Z,1012.16
2022-10-02T10:59:10.890Z,1012.16
2022-10-02T11:00:11.002Z,1012.21
2022-10-02T11:01:10.975Z,1012.26
2022-10-02T11:02:10.910Z,1012.29
2022-10-02T11:03:10.835Z,1012.32
2022-10-02T11:04:10.832Z,1012.32
2022-10-02T11:05:10.828Z,1012.35
2022-10-02T11:06:10.809Z,1012.29
2022-10-02T11:07:10.797Z,1012.32
2022-10-02T11:08:10.787Z,1012.29
2022-10-02T11:09:10.779Z,1012.25
2022-10-02T11:10:10.840Z,1012.27
2022-10-02T11:11:10.774Z,1012.27
2022-10-02T11:12:10.735Z,1012.35
2022-10-02T11:13:10.721Z,1012.33
2022-10-02T11:14:10.721Z,1012.32
2022-10-02T11:15:10.700Z,1012.34
2022-10-02T11:16:10.731Z,1012.36
2022-10-02T11:17:10.685Z,1012.38
2022-10-02T11:18:10.673Z,1012.42
2022-10-02T11:19:10.663Z,1012.41
2022-10-02T11:20:10.755Z,1012.47
2022-10-02T11:21:10.651Z,1012.44
2022-10-02T11:22:10.631Z,1012.44
2022-10-02T11:23:10.611Z,1012.45
2022-10-02T11:24:11.107Z,1012.47
2022-10-02T11:25:12.883Z,1012.52
2022-10-02T11:26:10.587Z,1012.49
2022-10-02T11:27:10.600Z,1012.52
2022-10-02T11:28:10.627Z,1012.54
2022-10-02T11:29:10.545Z,1012.52
2022-10-02T11:30:10.645Z,1012.54
2022-10-02T11:31:10.600Z,1012.53
2022-10-02T11:32:10.583Z,1012.56
2022-10-02T11:33:10.506Z,1012.58
2022-10-02T11:34:10.487Z,1012.56
2022-10-02T11:35:10.479Z,1012.56
2022-10-02T11:36:10.466Z,1012.61
2022-10-02T11:37:10.501Z,1012.59
2022-10-02T11:38:10.466Z,1012.58
2022-10-02T11:39:10.432Z,1012.65
2022-10-02T11:40:10.484Z,1012.67
2022-10-02T11:41:10.409Z,1012.65
2022-10-02T11:42:10.409Z,1012.68
2022-10-02T11:43:10.423Z,1012.69
2022-10-02T11:44:10.395Z,1012.64
2022-10-02T11:45:10.365Z,1012.61
2022-10-02T11:46:10.426Z,1012.64
2022-10-02T11:47:10.353Z,1012.71
2022-10-02T11:48:10.361Z,1012.63
2022-10-02T11:49:10.329Z,1012.66
2022-10-02T11:50:10.327Z,1012.67
2022-10-02T11:51:10.369Z,1012.68
2022-10-02T11:52:10.293Z,1012.63
2022-10-02T11:53:10.297Z,1012.62
2022-10-02T11:54:10.281Z,1012.58
2022-10-02T11:55:10.253Z,1012.60
2022-10-02T11:56:10.248Z,1012.55
2022-10-02T11:57:10.233Z,1012.56
2022-10-02T11:58:10.242Z,1012.55
2022-10-02T11:59:10.227Z,1012.52
2022-10-02T12:00:10.203Z,1012.52
2022-10-02T12:01:10.192Z,1012.60
2022-10-02T12:02:13.306Z,1012.57
2022-10-02T12:03:11.370Z,1012.59
2022-10-02T12:04:10.162Z,1012.56
2022-10-02T12:05:10.146Z,1012.62